Time;durP1;ratioP1;P1;durP2;ratioP2;P2;SDS_P1;SDS_P2;PMS_P1;PMS_P2;Temp;Humidity;BMP_temperature;BMP_pressure;BME280_temperature;BME280_humidity;BME280_pressure;Samples;Min_cycle;Max_cycle;Signal;HPM_P1;HPM_P2
2023/06/04 00:01:57;;;;;;;;;4.00;4.00;;;;;17.70;45.72;101728.72;5077875;27;45307;-76
2023/06/04 00:04:23;;;;;;;;;4.00;3.00;;;;;17.66;45.81;101711.09;5078089;27;45379;-76
2023/06/04 00:06:48;;;;;;;;;4.33;2.67;;;;;17.70;45.20;101723.38;5077213;27;45516;-76
2023/06/04 00:09:14;;;;;;;;;4.00;3.00;;;;;17.55;45.34;101701.72;5076916;27;45519;-76
2023/06/04 00:11:39;;;;;;;;;3.67;3.67;;;;;17.58;45.72;101714.91;5077461;27;45483;-75
2023/06/04 00:14:04;;;;;;;;;5.00;3.67;;;;;17.57;45.81;101714.97;5077561;27;45389;-78
2023/06/04 00:16:30;;;;;;;;;4.00;3.33;;;;;17.55;45.53;101708.84;5077401;27;45472;-78
2023/06/04 00:18:55;;;;;;;;;5.67;3.00;;;;;17.57;45.72;101718.53;5077572;27;45408;-78
2023/06/04 00:21:21;;;;;;;;;5.00;3.00;;;;;17.54;46.06;101715.09;5077684;27;45214;-78
2023/06/04 00:23:46;;;;;;;;;4.33;3.33;;;;;17.54;45.69;101712.44;5077766;27;45548;-78
2023/06/04 00:26:12;;;;;;;;;5.00;5.00;;;;;17.45;45.83;101702.13;5077264;27;45368;-78
2023/06/04 00:28:37;;;;;;;;;3.00;3.00;;;;;17.50;45.93;101716.13;5077663;27;45418;-77
2023/06/04 00:31:05;;;;;;;;;3.00;3.00;;;;;17.48;46.00;101724.16;5080613;27;45449;-77
2023/06/04 00:33:31;;;;;;;;;2.00;2.00;;;;;17.38;46.28;101710.34;5082761;27;45348;-77
2023/06/04 00:35:57;;;;;;;;;3.33;3.33;;;;;17.40;46.08;101716.47;5081584;27;46676;-77
2023/06/04 00:38:22;;;;;;;;;4.67;3.00;;;;;17.44;46.01;101722.56;5082408;27;45257;-77
2023/06/04 00:40:47;;;;;;;;;3.00;3.00;;;;;17.09;46.34;101660.78;5082947;27;45597;-77
2023/06/04 00:43:13;;;;;;;;;4.00;2.00;;;;;17.39;46.02;101712.06;5082344;27;45431;-76
2023/06/04 00:45:39;;;;;;;;;6.00;4.33;;;;;17.43;45.91;101725.25;5082566;27;46892;-77
2023/06/04 00:48:05;;;;;;;;;3.33;2.00;;;;;17.32;46.02;101705.22;5081696;27;45219;-77
2023/06/04 00:50:33;;;;;;;;;3.00;3.00;;;;;17.33;46.08;101714.09;5082814;27;45176;-77
2023/06/04 00:52:58;;;;;;;;;5.00;4.00;;;;;17.33;46.21;101719.41;5081109;27;45286;-76
2023/06/04 00:55:24;;;;;;;;;4.00;4.00;;;;;17.29;46.75;101715.13;5080863;27;45328;-74
2023/06/04 00:57:50;;;;;;;;;3.67;3.67;;;;;17.28;46.64;101726.66;5080196;27;45430;-74
2023/06/04 01:00:16;;;;;;;;;4.33;3.67;;;;;17.18;46.68;101715.47;5081529;27;45600;-77
2023/06/04 01:02:45;;;;;;;;;3.33;3.00;;;;;17.17;46.93;101714.63;5082724;27;45394;-76
2023/06/04 01:05:20;;;;;;;;;7.00;4.00;;;;;17.16;46.57;101712.88;5080872;27;45452;-76
2023/06/04 01:07:46;;;;;;;;;8.67;5.67;;;;;17.12;47.05;101711.25;5081210;27;45282;-78
2023/06/04 01:10:13;;;;;;;;;6.33;3.33;;;;;17.13;47.07;101712.13;5080578;27;45305;-78
2023/06/04 01:12:40;;;;;;;;;3.00;3.00;;;;;17.03;46.97;101696.47;5080414;27;45502;-78
2023/06/04 01:15:06;;;;;;;;;6.00;5.33;;;;;17.09;47.59;101713.16;5080992;27;45758;-78
2023/06/04 01:17:42;;;;;;;;;5.67;4.33;;;;;17.08;47.32;101709.63;5081107;27;45369;-77
2023/06/04 01:20:28;;;;;;;;;10.00;3.33;;;;;17.08;47.23;101711.41;5080583;27;45321;-78
2023/06/04 01:22:54;;;;;;;;;7.67;4.33;;;;;17.05;47.32;101699.94;5080589;27;45688;-78
2023/06/04 01:25:33;;;;;;;;;5.00;5.00;;;;;17.05;47.20;101704.41;5080191;27;45334;-78
2023/06/04 01:27:58;;;;;;;;;5.67;4.33;;;;;16.97;47.94;101695.81;5079950;27;45368;-78
2023/06/04 01:30:25;;;;;;;;;6.00;4.67;;;;;16.99;47.92;101702.81;5079142;27;45385;-79
2023/06/04 01:32:53;;;;;;;;;4.67;3.67;;;;;16.99;47.99;101709.91;5080511;27;45262;-78
2023/06/04 01:35:18;;;;;;;;;3.00;3.00;;;;;16.91;48.27;101704.88;5079975;27;46283;-77
2023/06/04 01:37:44;;;;;;;;;5.00;5.00;;;;;16.87;48.12;101693.47;5080094;27;45306;-78
2023/06/04 01:40:10;;;;;;;;;2.00;2.00;;;;;16.93;47.85;101703.00;5080067;27;45228;-78
2023/06/04 01:42:35;;;;;;;;;3.67;3.67;;;;;16.93;48.09;101705.66;5079114;27;45481;-76
2023/06/04 01:45:01;;;;;;;;;5.00;4.33;;;;;16.78;48.15;101690.22;5079888;27;45375;-76
2023/06/04 01:47:26;;;;;;;;;5.00;4.67;;;;;16.86;48.57;101714.75;5079879;27;45485;-76
2023/06/04 01:49:51;;;;;;;;;4.00;4.00;;;;;16.78;48.97;101698.19;5080166;27;45198;-77
2023/06/04 01:52:17;;;;;;;;;3.67;3.33;;;;;16.76;48.51;101706.22;5079860;27;45412;-77
2023/06/04 01:54:42;;;;;;;;;6.00;4.00;;;;;16.72;48.64;101707.25;5078496;27;46082;-77
2023/06/04 01:57:09;;;;;;;;;4.67;4.67;;;;;16.76;48.83;101721.31;5079714;27;45235;-78
2023/06/04 01:59:36;;;;;;;;;6.67;6.00;;;;;16.69;48.66;101710.00;5080087;27;46407;-78
2023/06/04 02:02:02;;;;;;;;;8.33;6.33;;;;;16.69;49.36;101713.53;5079957;27;45327;-78
2023/06/04 02:04:27;;;;;;;;;6.00;6.00;;;;;16.67;49.29;101709.19;5079514;27;45916;-77
2023/06/04 02:06:53;;;;;;;;;8.33;5.67;;;;;16.68;49.71;101717.09;5079207;27;45448;-78
2023/06/04 02:09:18;;;;;;;;;7.33;5.33;;;;;16.69;49.20;101713.53;5080295;27;45542;-77
2023/06/04 02:11:43;;;;;;;;;10.00;8.00;;;;;16.63;49.55;101711.06;5079662;27;46080;-77
2023/06/04 02:14:09;;;;;;;;;5.67;5.67;;;;;16.62;49.31;101714.66;5079506;27;46477;-76
2023/06/04 02:16:34;;;;;;;;;5.00;5.00;;;;;16.56;49.26;101714.00;5079646;27;45373;-77
2023/06/04 02:19:00;;;;;;;;;5.33;5.00;;;;;16.49;49.88;101713.31;5079846;27;45391;-77
2023/06/04 02:21:26;;;;;;;;;7.33;5.00;;;;;16.50;49.77;101717.72;5079414;27;45505;-75
2023/06/04 02:23:51;;;;;;;;;6.67;5.00;;;;;16.45;50.32;101706.34;5079148;27;45596;-74
2023/06/04 02:26:17;;;;;;;;;6.33;5.33;;;;;16.40;49.82;101698.53;5079351;27;45400;-74
2023/06/04 02:28:42;;;;;;;;;6.00;6.00;;;;;16.47;50.00;101716.03;5079027;27;45233;-75
2023/06/04 02:31:07;;;;;;;;;6.00;6.00;;;;;16.48;50.01;101716.88;5079621;27;45411;-74
2023/06/04 02:33:33;;;;;;;;;7.33;6.00;;;;;16.43;50.00;101710.84;5079141;27;47216;-75
2023/06/04 02:35:58;;;;;;;;;6.00;6.00;;;;;16.34;50.17;101702.25;5079057;27;45737;-75
2023/06/04 02:38:23;;;;;;;;;6.00;6.00;;;;;16.41;49.96;101725.97;5079447;27;45320;-74
2023/06/04 02:40:49;;;;;;;;;8.33;3.33;;;;;16.34;50.74;101710.22;5079282;27;45534;-75
2023/06/04 02:43:15;;;;;;;;;4.33;4.33;;;;;16.34;50.23;101712.88;5078866;27;45462;-74
2023/06/04 02:45:40;;;;;;;;;7.33;7.33;;;;;16.35;50.25;101716.41;5078787;27;45345;-75
2023/06/04 02:48:05;;;;;;;;;6.67;5.00;;;;;16.32;50.91;101720.03;5079201;27;45462;-75
2023/06/04 02:50:31;;;;;;;;;4.00;4.00;;;;;16.26;50.33;101706.91;5079249;27;45382;-76
2023/06/04 02:52:56;;;;;;;;;6.33;6.33;;;;;16.25;50.44;101713.19;5077717;27;45428;-75
2023/06/04 02:55:21;;;;;;;;;6.33;5.67;;;;;16.27;50.64;101713.13;5078375;27;45398;-75
2023/06/04 02:57:47;;;;;;;;;8.33;4.67;;;;;16.26;50.42;101719.34;5078968;27;45250;-75
2023/06/04 03:00:14;;;;;;;;;8.67;6.00;;;;;16.25;50.53;101720.25;5079087;27;45388;-76
2023/06/04 03:02:41;;;;;;;;;9.00;5.00;;;;;16.05;50.67;101683.66;5078699;27;45979;-76
2023/06/04 03:05:10;;;;;;;;;6.67;6.67;;;;;16.20;51.00;101715.09;5078182;27;45507;-76
2023/06/04 03:07:36;;;;;;;;;5.67;3.33;;;;;15.91;50.75;101674.34;5070006;28;45405;-75
2023/06/04 03:10:01;;;;;;;;;5.67;4.67;;;;;16.10;51.25;101703.88;5078865;27;45338;-75
2023/06/04 03:12:27;;;;;;;;;4.00;4.00;;;;;16.16;51.33;101716.09;5078005;27;45721;-75
2023/06/04 03:14:52;;;;;;;;;5.33;5.00;;;;;16.07;51.23;101703.09;5078682;27;45700;-74
2023/06/04 03:17:17;;;;;;;;;4.00;4.00;;;;;16.05;51.44;101702.25;5078784;27;45345;-74
2023/06/04 03:19:43;;;;;;;;;5.00;4.33;;;;;16.10;51.02;101713.63;5078269;27;45375;-74
2023/06/04 03:22:10;;;;;;;;;10.67;5.00;;;;;16.04;51.33;101711.19;5077925;27;46292;-74
2023/06/04 03:24:38;;;;;;;;;5.67;4.00;;;;;16.05;51.59;101713.78;5078236;27;45286;-74
2023/06/04 03:27:05;;;;;;;;;6.33;4.00;;;;;16.00;51.81;101716.59;5077217;27;45554;-75
2023/06/04 03:29:31;;;;;;;;;5.67;3.67;;;;;16.00;51.70;101715.69;5078039;27;45383;-74
2023/06/04 03:31:57;;;;;;;;;6.00;6.00;;;;;15.95;51.26;101715.84;5077741;27;47275;-74
2023/06/04 03:34:24;;;;;;;;;8.33;6.67;;;;;15.92;51.85;101723.91;5078157;28;45463;-74
2023/06/04 03:36:51;;;;;;;;;6.67;5.00;;;;;15.86;51.57;101720.53;5078114;27;45330;-75
2023/06/04 03:39:16;;;;;;;;;6.67;6.67;;;;;15.83;52.14;101721.53;5063753;28;45273;-76
2023/06/04 03:41:41;;;;;;;;;6.67;6.67;;;;;15.80;51.82;101726.91;5057423;28;47280;-75
2023/06/04 03:44:07;;;;;;;;;8.00;5.67;;;;;15.85;51.94;101727.66;5057675;28;45163;-76
2023/06/04 03:46:33;;;;;;;;;5.00;5.00;;;;;15.82;52.11;101727.75;5068606;28;45389;-76
2023/06/04 03:48:58;;;;;;;;;6.67;4.67;;;;;15.80;52.04;101726.91;5078011;27;45297;-76
2023/06/04 03:51:25;;;;;;;;;6.67;6.33;;;;;15.74;52.25;101721.75;5077062;28;45427;-75
2023/06/04 03:53:50;;;;;;;;;6.33;6.33;;;;;15.69;52.14;101723.66;5078452;27;45379;-76
2023/06/04 03:56:15;;;;;;;;;5.00;5.00;;;;;15.70;52.27;101717.44;5078141;27;45382;-76
2023/06/04 03:58:41;;;;;;;;;6.33;6.33;;;;;15.54;51.79;101693.97;5064458;27;45445;-77
2023/06/04 04:01:06;;;;;;;;;6.33;4.00;;;;;15.75;51.67;101734.09;5058274;28;45521;-77
2023/06/04 04:03:34;;;;;;;;;6.00;6.00;;;;;15.76;51.45;101726.09;5070790;28;45443;-76
2023/06/04 04:06:00;;;;;;;;;10.00;8.33;;;;;15.71;51.38;101722.69;5077699;27;45291;-74
2023/06/04 04:08:26;;;;;;;;;6.33;5.00;;;;;15.74;51.12;101727.03;5077951;28;45272;-75
2023/06/04 04:10:51;;;;;;;;;5.00;5.00;;;;;15.71;51.28;101727.13;5077594;27;45467;-74
2023/06/04 04:13:17;;;;;;;;;7.00;4.00;;;;;15.74;51.63;101735.00;5075805;28;45384;-75
2023/06/04 04:15:43;;;;;;;;;9.33;5.00;;;;;15.71;51.05;101725.34;5077711;27;45359;-74
2023/06/04 04:18:10;;;;;;;;;8.33;5.33;;;;;15.78;51.15;101729.59;5077051;27;46010;-75
2023/06/04 04:20:35;;;;;;;;;10.00;5.00;;;;;15.81;51.07;101734.84;5077413;27;47234;-75
2023/06/04 04:23:01;;;;;;;;;7.33;4.67;;;;;15.79;50.70;101733.16;5077285;27;45342;-75
2023/06/04 04:25:27;;;;;;;;;6.00;4.00;;;;;15.72;50.44;101724.44;5077676;27;45319;-76
2023/06/04 04:27:52;;;;;;;;;6.00;5.00;;;;;15.78;50.51;101734.91;5077125;27;45380;-75
2023/06/04 04:30:18;;;;;;;;;5.00;5.00;;;;;15.79;50.65;101730.50;5077025;27;45958;-76
2023/06/04 04:32:48;;;;;;;;;7.33;6.00;;;;;15.83;50.61;101738.31;5077447;27;45212;-74
2023/06/04 04:35:14;;;;;;;;;4.00;4.00;;;;;15.84;50.70;101741.84;5077642;27;45348;-76
2023/06/04 04:37:40;;;;;;;;;4.00;4.00;;;;;15.89;50.33;101739.94;5077869;28;45345;-76
2023/06/04 04:40:09;;;;;;;;;5.00;5.00;;;;;15.92;50.30;101736.31;5077094;27;46991;-76
2023/06/04 04:42:35;;;;;;;;;5.00;4.33;;;;;15.87;50.19;101735.56;5076533;27;45331;-76
2023/06/04 04:45:00;;;;;;;;;5.00;5.00;;;;;15.89;50.39;101739.94;5074151;27;45583;-75
2023/06/04 04:47:25;;;;;;;;;5.00;5.00;;;;;15.84;50.21;101726.78;5077852;27;45229;-76
2023/06/04 04:49:50;;;;;;;;;8.00;6.00;;;;;15.97;50.32;101739.69;5077477;27;45440;-75
2023/06/04 04:52:16;;;;;;;;;3.33;3.33;;;;;15.77;50.02;101698.63;5075735;27;45553;-76
2023/06/04 04:54:41;;;;;;;;;5.67;4.33;;;;;15.97;50.22;101727.28;5076973;27;46396;-75
2023/06/04 04:57:07;;;;;;;;;4.33;4.33;;;;;16.02;49.92;101736.00;5073484;27;45289;-76
2023/06/04 04:59:32;;;;;;;;;6.33;6.33;;;;;16.02;49.54;101738.66;5071751;28;45594;-77
2023/06/04 05:01:58;;;;;;;;;5.00;5.00;;;;;16.04;49.34;101737.75;5076445;27;45352;-77
2023/06/04 05:04:23;;;;;;;;;5.33;4.00;;;;;16.07;49.56;101741.16;5077193;27;45709;-76
2023/06/04 05:06:48;;;;;;;;;6.00;4.00;;;;;16.16;49.31;101737.34;5077448;27;45521;-77
2023/06/04 05:09:15;;;;;;;;;4.00;4.00;;;;;16.16;49.07;101726.72;5076960;27;45764;-78
2023/06/04 05:11:41;;;;;;;;;4.33;4.33;;;;;16.20;48.88;101733.69;5076802;27;45350;-77
2023/06/04 05:14:07;;;;;;;;;5.00;3.33;;;;;16.30;48.81;101739.59;5076545;27;45399;-77
2023/06/04 05:16:35;;;;;;;;;3.67;3.67;;;;;16.31;48.31;101744.00;5077097;27;45418;-75
2023/06/04 05:19:01;;;;;;;;;5.67;5.67;;;;;16.19;48.22;101723.97;5080605;27;47231;-75
2023/06/04 05:21:28;;;;;;;;;6.67;5.33;;;;;16.36;48.41;101744.72;5071960;27;45178;-76
2023/06/04 05:23:55;;;;;;;;;3.00;3.00;;;;;16.30;48.12;101742.25;5060675;28;45317;-74
2023/06/04 05:26:25;;;;;;;;;3.00;3.00;;;;;16.34;48.03;101736.81;5060411;28;45391;-75
2023/06/04 05:28:51;;;;;;;;;3.00;3.00;;;;;16.41;48.22;101742.81;5059761;28;45273;-75
2023/06/04 05:31:17;;;;;;;;;4.00;4.00;;;;;16.47;48.17;101747.06;5059910;28;45313;-77
2023/06/04 05:33:43;;;;;;;;;3.33;3.33;;;;;16.46;47.67;101732.03;5060204;28;45487;-75
2023/06/04 05:36:09;;;;;;;;;4.67;4.33;;;;;16.49;47.28;101738.09;5061860;28;45338;-75
2023/06/04 05:38:35;;;;;;;;;4.00;4.00;;;;;16.60;47.22;101745.75;5080276;27;46604;-76
2023/06/04 05:41:01;;;;;;;;;4.00;4.00;;;;;16.62;47.72;101743.03;5080917;27;45340;-76
2023/06/04 05:43:27;;;;;;;;;5.67;3.00;;;;;16.62;47.10;101746.56;5080413;27;45404;-76
2023/06/04 05:45:52;;;;;;;;;3.67;3.33;;;;;16.68;47.09;101748.16;5080208;27;45379;-76
2023/06/04 05:48:18;;;;;;;;;4.00;4.00;;;;;16.66;47.51;101752.66;5079720;27;46345;-75
2023/06/04 05:50:43;;;;;;;;;5.00;5.00;;;;;16.71;46.69;101754.25;5079868;27;45368;-76
2023/06/04 05:53:09;;;;;;;;;3.67;3.67;;;;;16.71;46.88;101756.03;5080029;27;45306;-76
2023/06/04 05:55:34;;;;;;;;;4.67;4.67;;;;;16.69;47.14;101753.41;5079742;27;45427;-75
2023/06/04 05:58:00;;;;;;;;;4.00;4.00;;;;;16.70;46.57;101754.28;5078895;27;45394;-75
2023/06/04 06:00:26;;;;;;;;;3.00;3.00;;;;;16.70;46.98;101756.94;5079611;28;45686;-76
2023/06/04 06:02:52;;;;;;;;;4.33;3.00;;;;;16.58;46.85;101728.09;5068169;27;45429;-77
2023/06/04 06:05:19;;;;;;;;;5.33;4.00;;;;;16.81;46.71;101769.91;5079946;27;45376;-76
2023/06/04 06:07:45;;;;;;;;;5.33;5.33;;;;;16.82;46.63;101771.66;5079080;27;46707;-76
2023/06/04 06:10:11;;;;;;;;;7.33;4.00;;;;;16.63;46.36;101728.84;5079292;27;45334;-76
2023/06/04 06:12:37;;;;;;;;;5.00;4.67;;;;;16.87;46.76;101762.66;5079276;27;45285;-75
2023/06/04 06:15:02;;;;;;;;;8.33;4.00;;;;;16.93;46.60;101761.53;5079475;27;45394;-76
2023/06/04 06:17:29;;;;;;;;;4.00;4.00;;;;;17.00;46.27;101728.50;5077729;28;46415;-77
2023/06/04 06:19:55;;;;;;;;;4.00;4.00;;;;;17.24;45.84;101757.88;5079619;27;45301;-76
2023/06/04 06:22:21;;;;;;;;;5.00;4.00;;;;;17.27;46.23;101767.50;5078842;27;45449;-75
2023/06/04 06:24:48;;;;;;;;;5.00;3.67;;;;;17.26;45.73;101769.31;5079670;27;45221;-74
2023/06/04 06:27:15;;;;;;;;;5.67;4.67;;;;;17.29;45.64;101776.34;5079141;27;46565;-77
2023/06/04 06:29:40;;;;;;;;;7.00;5.00;;;;;17.25;45.23;101772.91;5078704;27;45414;-76
2023/06/04 06:32:06;;;;;;;;;5.67;4.00;;;;;17.25;45.05;101772.03;5078725;27;45441;-75
2023/06/04 06:34:31;;;;;;;;;8.00;5.00;;;;;17.20;45.41;101773.06;5079340;27;45467;-78
2023/06/04 06:36:57;;;;;;;;;4.33;4.00;;;;;17.25;45.64;101780.88;5078695;27;45441;-75
2023/06/04 06:39:22;;;;;;;;;5.00;5.00;;;;;17.20;45.35;101770.41;5078985;27;45349;-76
2023/06/04 06:41:47;;;;;;;;;3.33;3.33;;;;;17.31;45.30;101770.03;5078797;27;45317;-74
2023/06/04 06:44:13;;;;;;;;;2.67;2.67;;;;;17.34;45.39;101769.94;5078533;27;45428;-74
2023/06/04 06:46:38;;;;;;;;;4.00;4.00;;;;;17.47;44.96;101788.13;5078679;27;46492;-76
2023/06/04 06:49:04;;;;;;;;;4.00;4.00;;;;;17.47;44.96;101788.13;5078960;27;45777;-75
2023/06/04 06:51:29;;;;;;;;;6.67;4.33;;;;;17.48;44.84;101781.88;5078478;27;45333;-75
2023/06/04 06:53:55;;;;;;;;;5.00;4.00;;;;;17.51;44.81;101774.66;5078596;27;45540;-74
2023/06/04 06:56:20;;;;;;;;;0.00;0.00;;;;;17.63;44.75;101781.34;5078739;27;46506;-75
2023/06/04 06:58:46;;;;;;;;;4.00;3.00;;;;;17.64;44.14;101774.22;5078777;27;45197;-75
2023/06/04 07:01:12;;;;;;;;;5.67;3.00;;;;;17.74;42.92;101788.94;5078628;27;45227;-74
2023/06/04 07:03:39;;;;;;;;;4.00;2.67;;;;;17.87;43.00;101784.03;5078278;27;45445;-75
2023/06/04 07:06:05;;;;;;;;;4.00;3.00;;;;;18.39;42.55;101782.09;5078144;27;45273;-75
2023/06/04 07:08:31;;;;;;;;;3.33;2.00;;;;;18.29;41.82;101737.22;5078445;27;45375;-75
2023/06/04 07:10:56;;;;;;;;;4.00;2.00;;;;;18.39;41.68;101760.78;5078269;28;45487;-75
2023/06/04 07:13:22;;;;;;;;;4.00;3.00;;;;;18.48;41.07;101782.69;5077025;27;45541;-73
2023/06/04 07:15:47;;;;;;;;;2.00;2.00;;;;;18.58;40.35;101781.38;5078146;27;46415;-73
2023/06/04 07:18:12;;;;;;;;;3.00;3.00;;;;;19.25;39.79;101784.91;5078170;27;45332;-74
2023/06/04 07:20:38;;;;;;;;;5.00;3.33;;;;;19.77;38.78;101785.28;5078510;27;45298;-73
2023/06/04 07:23:03;;;;;;;;;2.00;2.00;;;;;20.08;39.00;101794.59;5078850;27;45308;-72
2023/06/04 07:25:28;;;;;;;;;2.00;2.00;;;;;20.07;37.98;101754.56;5076722;27;47071;-71
2023/06/04 07:27:57;;;;;;;;;3.67;3.67;;;;;20.36;37.55;101790.69;5078227;27;45300;-71
2023/06/04 07:30:24;;;;;;;;;4.67;3.00;;;;;20.76;36.98;101791.44;5077864;27;45446;-71
2023/06/04 07:32:50;;;;;;;;;4.67;4.00;;;;;20.33;36.50;101764.03;5077985;27;45677;-71
2023/06/04 07:35:15;;;;;;;;;2.00;2.00;;;;;20.20;37.75;101779.84;5078168;27;47445;-71
2023/06/04 07:37:41;;;;;;;;;4.00;4.00;;;;;20.02;37.44;101783.34;5076007;27;45401;-71
2023/06/04 07:40:07;;;;;;;;;4.67;4.67;;;;;19.81;37.68;101786.06;5060452;28;45377;-75
2023/06/04 07:42:32;;;;;;;;;4.33;4.33;;;;;19.71;37.67;101790.91;5077002;27;45660;-73
2023/06/04 07:44:58;;;;;;;;;2.67;2.67;;;;;19.70;37.59;101796.31;5073028;27;46315;-72
2023/06/04 07:47:24;;;;;;;;;5.67;4.00;;;;;19.62;37.41;101794.88;5062441;28;45235;-72
2023/06/04 07:49:49;;;;;;;;;5.00;4.00;;;;;19.58;37.83;101789.72;5077465;27;45254;-72
2023/06/04 07:52:15;;;;;;;;;3.33;2.00;;;;;19.62;37.87;101797.53;5076607;27;45413;-73
2023/06/04 07:54:41;;;;;;;;;5.00;3.00;;;;;19.63;37.31;101793.03;5077441;27;46144;-75
2023/06/04 07:57:07;;;;;;;;;3.33;3.33;;;;;19.76;36.87;101801.41;5077253;27;45253;-74
2023/06/04 07:59:32;;;;;;;;;5.00;2.00;;;;;19.87;37.24;101801.81;5077181;27;45593;-71
2023/06/04 08:01:57;;;;;;;;;7.33;7.33;;;;;19.96;36.67;101804.06;5076155;27;45476;-72
2023/06/04 08:04:23;;;;;;;;;3.00;3.00;;;;;20.03;37.26;101798.44;5077464;27;46311;-71
2023/06/04 08:06:49;;;;;;;;;5.00;2.67;;;;;19.98;36.82;101783.50;5057350;27;45419;-71
2023/06/04 08:09:15;;;;;;;;;4.00;3.00;;;;;20.16;36.91;101805.84;5072885;28;45470;-72
2023/06/04 08:11:42;;;;;;;;;2.67;2.67;;;;;20.48;36.84;101803.44;5077276;27;45485;-71
2023/06/04 08:14:07;;;;;;;;;2.67;2.67;;;;;21.18;35.02;101794.75;5077139;27;46666;-71
2023/06/04 08:16:33;;;;;;;;;3.33;2.00;;;;;21.10;34.96;101791.56;5074555;27;45574;-73
2023/06/04 08:18:58;;;;;;;;;2.67;2.67;;;;;21.03;35.28;101799.94;5075620;27;45745;-71
2023/06/04 08:21:27;;;;;;;;;2.67;2.67;;;;;20.97;35.51;101802.03;5077488;27;45446;-75
2023/06/04 08:23:52;;;;;;;;;3.00;3.00;;;;;20.96;35.13;101797.63;5077439;27;46370;-74
2023/06/04 08:26:19;;;;;;;;;3.00;2.00;;;;;20.96;36.01;101794.97;5076833;27;45312;-72
2023/06/04 08:28:47;;;;;;;;;2.00;2.00;;;;;21.25;35.27;101801.53;5076469;27;45522;-74
2023/06/04 08:31:12;;;;;;;;;1.67;1.33;;;;;21.92;33.90;101804.31;5075589;27;45420;-73
2023/06/04 08:33:38;;;;;;;;;2.00;2.00;;;;;22.29;33.89;101801.44;5076812;27;46279;-73
2023/06/04 08:36:03;;;;;;;;;3.67;2.00;;;;;22.29;33.39;101788.03;5077354;27;45439;-73
2023/06/04 08:38:28;;;;;;;;;4.00;4.00;;;;;22.19;33.29;101798.41;5076508;27;45256;-72
2023/06/04 08:41:01;;;;;;;;;4.33;3.00;;;;;22.00;32.70;101799.44;5076023;27;45396;-72
2023/06/04 08:43:28;;;;;;;;;7.00;7.00;;;;;22.06;33.21;101792.84;5077335;27;46469;-71
2023/06/04 08:46:01;;;;;;;;;6.33;3.00;;;;;22.19;33.23;101801.97;5075431;27;45332;-72
2023/06/04 08:48:29;;;;;;;;;5.00;3.00;;;;;22.14;32.83;101798.66;5074476;28;45360;-71
2023/06/04 08:50:59;;;;;;;;;3.00;2.00;;;;;21.96;32.72;101787.13;5076345;27;45199;-72
2023/06/04 08:53:24;;;;;;;;;2.00;2.00;;;;;21.89;33.01;101812.53;5079740;27;45511;-73
2023/06/04 08:55:51;;;;;;;;;1.00;1.00;;;;;21.79;32.90;101811.31;5079837;27;45369;-75
2023/06/04 08:58:19;;;;;;;;;3.00;3.00;;;;;21.84;33.23;101804.75;5080528;27;45461;-72
2023/06/04 09:00:44;;;;;;;;;2.67;2.67;;;;;22.02;32.82;101796.66;5079408;27;45443;-74
2023/06/04 09:03:11;;;;;;;;;3.00;3.00;;;;;22.29;32.66;101774.63;5079630;27;46518;-74
2023/06/04 09:05:36;;;;;;;;;3.00;1.67;;;;;22.45;32.38;101801.50;5079715;28;45477;-75
2023/06/04 09:08:04;;;;;;;;;1.33;1.00;;;;;22.47;31.80;101808.50;5080567;27;45308;-75
2023/06/04 09:10:33;;;;;;;;;3.00;1.00;;;;;22.36;31.93;101800.19;5081012;27;45409;-73
2023/06/04 09:13:03;;;;;;;;;1.67;1.67;;;;;22.40;31.93;101801.75;5079909;27;46180;-75
2023/06/04 09:15:28;;;;;;;;;2.00;2.00;;;;;22.52;32.37;101813.63;5079878;27;45520;-73
2023/06/04 09:17:53;;;;;;;;;2.00;2.00;;;;;22.76;32.27;101792.56;5080683;27;45392;-75
2023/06/04 09:20:21;;;;;;;;;2.00;2.00;;;;;23.10;32.05;101810.28;5080637;27;45215;-76
2023/06/04 09:22:46;;;;;;;;;2.00;2.00;;;;;23.09;31.56;101802.28;5080251;27;47547;-75
2023/06/04 09:25:24;;;;;;;;;3.00;2.00;;;;;23.19;31.58;101800.81;5080075;27;45458;-75
2023/06/04 09:27:49;;;;;;;;;2.00;2.00;;;;;23.13;30.26;101793.13;5080287;27;45400;-73
2023/06/04 09:30:15;;;;;;;;;1.00;1.00;;;;;22.91;31.07;101783.59;5080539;27;45218;-76
2023/06/04 09:32:40;;;;;;;;;1.33;1.00;;;;;22.92;30.62;101796.09;5079679;27;46445;-75
2023/06/04 09:35:09;;;;;;;;;2.33;2.33;;;;;23.00;30.90;101792.09;5079995;27;45182;-76
2023/06/04 09:37:35;;;;;;;;;1.00;1.00;;;;;23.34;30.35;101790.09;5080094;27;45334;-75
2023/06/04 09:40:01;;;;;;;;;1.33;1.00;;;;;24.10;30.65;101791.75;5080271;27;45383;-74
2023/06/04 09:42:27;;;;;;;;;1.00;1.00;;;;;25.10;29.54;101800.56;5079926;27;45531;-76
2023/06/04 09:44:53;;;;;;;;;1.00;1.00;;;;;26.83;27.97;101793.78;5079819;27;45380;-76
2023/06/04 09:47:18;;;;;;;;;2.00;2.00;;;;;29.01;24.62;101805.34;5079823;27;45669;-77
2023/06/04 09:49:45;;;;;;;;;4.67;2.33;;;;;31.29;23.76;101804.28;5080134;27;45475;-75
2023/06/04 09:52:12;;;;;;;;;3.00;2.00;;;;;33.43;21.52;101815.06;5079549;27;46353;-76
2023/06/04 09:54:39;;;;;;;;;2.00;2.00;;;;;35.11;20.13;101810.78;5079531;27;45297;-75
2023/06/04 09:57:16;;;;;;;;;1.33;1.00;;;;;36.58;19.22;101808.69;5080066;28;45411;-75
2023/06/04 09:59:44;;;;;;;;;6.00;3.00;;;;;38.06;18.52;101783.59;5079898;27;45403;-75
2023/06/04 10:02:12;;;;;;;;;2.67;2.67;;;;;39.32;17.63;101799.75;5078749;27;46469;-76
2023/06/04 10:04:42;;;;;;;;;4.67;2.00;;;;;40.46;17.95;101806.75;5079518;28;45239;-75
2023/06/04 10:07:10;;;;;;;;;1.67;1.00;;;;;41.10;15.85;101810.03;5079678;27;45296;-76
2023/06/04 10:09:45;;;;;;;;;0.67;0.67;;;;;41.70;14.29;101811.91;5079685;27;45293;-76
2023/06/04 10:12:14;;;;;;;;;1.00;1.00;;;;;42.34;14.20;101792.72;5079150;28;46682;-76
2023/06/04 10:14:45;;;;;;;;;0.00;0.00;;;;;43.11;15.49;101799.03;5079233;27;45218;-76
2023/06/04 10:17:13;;;;;;;;;2.33;2.33;;;;;43.58;13.38;101806.06;5079296;27;45475;-77
2023/06/04 10:19:43;;;;;;;;;1.67;1.00;;;;;43.46;12.89;101789.34;5079641;27;45490;-75
2023/06/04 10:22:11;;;;;;;;;2.33;1.00;;;;;43.74;12.60;101790.72;5079139;27;46654;-75
2023/06/04 10:24:36;;;;;;;;;0.00;0.00;;;;;43.79;13.37;101797.25;5079132;27;45217;-73
2023/06/04 10:27:10;;;;;;;;;0.67;0.67;;;;;43.74;12.28;101799.88;5079337;27;45365;-75
2023/06/04 10:29:36;;;;;;;;;2.00;1.33;;;;;43.69;11.73;101796.97;5079432;27;45202;-73
2023/06/04 10:32:01;;;;;;;;;1.00;1.00;;;;;43.74;11.93;101796.25;5078771;27;47477;-74
2023/06/04 10:34:27;;;;;;;;;1.75;0.00;;;;;44.10;12.04;101792.63;5079065;27;45357;-76
2023/06/04 10:36:53;;;;;;;;;1.25;1.25;;;;;44.24;13.18;101798.00;5079175;28;45241;-74
2023/06/04 10:39:32;;;;;;;;;2.00;0.25;;;;;43.94;12.14;101791.34;5079499;27;45345;-75
2023/06/04 10:42:02;;;;;;;;;1.00;0.00;;;;;43.88;11.95;101795.06;5079140;27;45682;-75
2023/06/04 10:44:29;;;;;;;;;0.75;0.50;;;;;43.86;11.61;101782.47;5078825;27;45712;-74
2023/06/04 10:46:56;;;;;;;;;0.00;0.00;;;;;43.65;11.68;101793.78;5078882;27;45873;-73
2023/06/04 10:49:29;;;;;;;;;1.00;1.00;;;;;43.43;11.98;101784.25;5079284;27;45378;-74
2023/06/04 10:51:56;;;;;;;;;0.75;0.75;;;;;43.16;12.59;101781.69;5078590;28;45379;-73
2023/06/04 10:54:25;;;;;;;;;2.75;1.00;;;;;42.65;12.42;101780.00;5078588;27;45369;-74
2023/06/04 10:56:52;;;;;;;;;2.75;1.00;;;;;42.01;11.95;101786.25;5078891;27;45456;-75
2023/06/04 10:59:18;;;;;;;;;1.75;1.00;;;;;41.05;12.25;101788.56;5078984;27;45278;-74
2023/06/04 11:01:45;;;;;;;;;1.75;1.75;;;;;39.64;12.83;101770.72;5078746;27;46624;-74
2023/06/04 11:04:20;;;;;;;;;0.67;0.67;;;;;38.54;13.55;101783.13;5078522;27;45344;-72
2023/06/04 11:06:45;;;;;;;;;1.67;1.67;;;;;37.34;13.99;101774.97;5078609;27;45414;-74
2023/06/04 11:09:16;;;;;;;;;3.67;2.00;;;;;36.36;14.50;101771.09;5078866;27;45365;-73
2023/06/04 11:11:41;;;;;;;;;0.00;0.00;;;;;35.23;14.88;101781.16;5077959;27;45720;-73
2023/06/04 11:14:08;;;;;;;;;0.67;0.67;;;;;34.22;15.58;101779.44;5077423;27;45403;-75
2023/06/04 11:16:34;;;;;;;;;3.00;0.67;;;;;33.18;16.27;101768.44;5078234;27;45288;-75
2023/06/04 11:18:59;;;;;;;;;1.33;1.33;;;;;32.26;16.10;101774.00;5078623;27;45387;-75
2023/06/04 11:21:25;;;;;;;;;1.33;1.00;;;;;31.40;17.33;101785.06;5078530;27;46499;-75